sensor_id;sensor_type;location;lat;lon;timestamp;P1;durP1;ratioP1;P2;durP2;ratioP2
52248;SDS011;38541;48.130;8.378;2023-06-04T00:00:08;4.43;;;4.03;;
52248;SDS011;38541;48.130;8.378;2023-06-04T00:02:36;4.43;;;3.95;;
52248;SDS011;38541;48.130;8.378;2023-06-04T00:05:03;4.22;;;3.92;;
52248;SDS011;38541;48.130;8.378;2023-06-04T00:07:29;5.05;;;3.70;;
52248;SDS011;38541;48.130;8.378;2023-06-04T00:09:56;4.22;;;3.80;;
52248;SDS011;38541;48.130;8.378;2023-06-04T00:12:22;4.07;;;3.67;;
52248;SDS011;38541;48.130;8.378;2023-06-04T00:14:49;4.57;;;4.03;;
52248;SDS011;38541;48.130;8.378;2023-06-04T00:17:15;4.97;;;4.03;;
52248;SDS011;38541;48.130;8.378;2023-06-04T00:19:42;4.85;;;4.13;;
52248;SDS011;38541;48.130;8.378;2023-06-04T00:22:09;4.68;;;4.28;;
52248;SDS011;38541;48.130;8.378;2023-06-04T00:24:37;4.63;;;4.20;;
52248;SDS011;38541;48.130;8.378;2023-06-04T00:27:05;7.05;;;5.55;;
52248;SDS011;38541;48.130;8.378;2023-06-04T00:29:33;7.57;;;4.60;;
52248;SDS011;38541;48.130;8.378;2023-06-04T00:31:59;5.70;;;4.70;;
52248;SDS011;38541;48.130;8.378;2023-06-04T00:34:26;5.05;;;4.55;;
52248;SDS011;38541;48.130;8.378;2023-06-04T00:36:52;4.32;;;3.92;;
52248;SDS011;38541;48.130;8.378;2023-06-04T00:39:19;4.47;;;3.80;;
52248;SDS011;38541;48.130;8.378;2023-06-04T00:41:46;4.55;;;4.15;;
52248;SDS011;38541;48.130;8.378;2023-06-04T00:44:12;4.53;;;4.13;;
52248;SDS011;38541;48.130;8.378;2023-06-04T00:46:39;4.68;;;4.20;;
52248;SDS011;38541;48.130;8.378;2023-06-04T00:49:05;4.57;;;4.05;;
52248;SDS011;38541;48.130;8.378;2023-06-04T00:51:32;5.38;;;3.75;;
52248;SDS011;38541;48.130;8.378;2023-06-04T00:53:59;5.32;;;4.32;;
52248;SDS011;38541;48.130;8.378;2023-06-04T00:56:36;4.93;;;4.43;;
52248;SDS011;38541;48.130;8.378;2023-06-04T00:59:07;5.43;;;4.65;;
52248;SDS011;38541;48.130;8.378;2023-06-04T01:01:43;5.28;;;4.53;;
52248;SDS011;38541;48.130;8.378;2023-06-04T01:04:30;5.68;;;4.32;;
52248;SDS011;38541;48.130;8.378;2023-06-04T01:07:02;4.95;;;4.50;;
52248;SDS011;38541;48.130;8.378;2023-06-04T01:09:31;5.50;;;4.18;;
52248;SDS011;38541;48.130;8.378;2023-06-04T01:11:58;5.43;;;4.55;;
52248;SDS011;38541;48.130;8.378;2023-06-04T01:14:25;5.07;;;4.40;;
52248;SDS011;38541;48.130;8.378;2023-06-04T01:16:56;5.57;;;4.68;;
52248;SDS011;38541;48.130;8.378;2023-06-04T01:19:48;5.88;;;4.53;;
52248;SDS011;38541;48.130;8.378;2023-06-04T01:22:39;4.53;;;4.10;;
52248;SDS011;38541;48.130;8.378;2023-06-04T01:25:14;4.63;;;4.22;;
52248;SDS011;38541;48.130;8.378;2023-06-04T01:27:54;4.68;;;4.20;;
52248;SDS011;38541;48.130;8.378;2023-06-04T01:30:23;4.80;;;4.30;;
52248;SDS011;38541;48.130;8.378;2023-06-04T01:32:56;5.85;;;4.47;;
52248;SDS011;38541;48.130;8.378;2023-06-04T01:35:23;5.32;;;4.82;;
52248;SDS011;38541;48.130;8.378;2023-06-04T01:37:54;5.07;;;4.57;;
52248;SDS011;38541;48.130;8.378;2023-06-04T01:40:22;5.90;;;4.15;;
52248;SDS011;38541;48.130;8.378;2023-06-04T01:42:49;5.88;;;4.75;;
52248;SDS011;38541;48.130;8.378;2023-06-04T01:45:16;4.88;;;4.30;;
52248;SDS011;38541;48.130;8.378;2023-06-04T01:47:43;4.95;;;4.45;;
52248;SDS011;38541;48.130;8.378;2023-06-04T01:50:09;5.63;;;4.72;;
52248;SDS011;38541;48.130;8.378;2023-06-04T01:52:36;7.90;;;4.38;;
52248;SDS011;38541;48.130;8.378;2023-06-04T01:55:04;5.18;;;4.68;;
52248;SDS011;38541;48.130;8.378;2023-06-04T01:57:31;6.97;;;5.20;;
52248;SDS011;38541;48.130;8.378;2023-06-04T01:59:57;6.07;;;4.80;;
52248;SDS011;38541;48.130;8.378;2023-06-04T02:02:24;5.43;;;4.40;;
52248;SDS011;38541;48.130;8.378;2023-06-04T02:04:51;5.05;;;4.55;;
52248;SDS011;38541;48.130;8.378;2023-06-04T02:07:18;6.43;;;4.65;;
52248;SDS011;38541;48.130;8.378;2023-06-04T02:09:48;4.70;;;4.30;;
52248;SDS011;38541;48.130;8.378;2023-06-04T02:12:15;6.30;;;4.47;;
52248;SDS011;38541;48.130;8.378;2023-06-04T02:14:42;5.57;;;4.13;;
52248;SDS011;38541;48.130;8.378;2023-06-04T02:17:11;6.38;;;5.13;;
52248;SDS011;38541;48.130;8.378;2023-06-04T02:19:43;5.00;;;4.22;;
52248;SDS011;38541;48.130;8.378;2023-06-04T02:22:17;6.00;;;4.75;;
52248;SDS011;38541;48.130;8.378;2023-06-04T02:24:44;5.47;;;4.72;;
52248;SDS011;38541;48.130;8.378;2023-06-04T02:27:11;6.38;;;4.40;;
52248;SDS011;38541;48.130;8.378;2023-06-04T02:29:39;5.03;;;4.63;;
52248;SDS011;38541;48.130;8.378;2023-06-04T02:32:06;6.18;;;4.68;;
52248;SDS011;38541;48.130;8.378;2023-06-04T02:34:33;5.40;;;4.68;;
52248;SDS011;38541;48.130;8.378;2023-06-04T02:37:00;5.03;;;4.53;;
52248;SDS011;38541;48.130;8.378;2023-06-04T02:39:28;5.53;;;4.57;;
52248;SDS011;38541;48.130;8.378;2023-06-04T02:41:54;6.35;;;4.63;;
52248;SDS011;38541;48.130;8.378;2023-06-04T02:44:21;5.80;;;5.20;;
52248;SDS011;38541;48.130;8.378;2023-06-04T02:46:47;4.68;;;4.18;;
52248;SDS011;38541;48.130;8.378;2023-06-04T02:49:14;4.90;;;4.43;;
52248;SDS011;38541;48.130;8.378;2023-06-04T02:51:40;5.32;;;4.72;;
52248;SDS011;38541;48.130;8.378;2023-06-04T02:54:07;5.45;;;4.95;;
52248;SDS011;38541;48.130;8.378;2023-06-04T02:56:35;5.28;;;4.65;;
52248;SDS011;38541;48.130;8.378;2023-06-04T02:59:03;6.32;;;4.88;;
52248;SDS011;38541;48.130;8.378;2023-06-04T03:01:30;6.88;;;5.03;;
52248;SDS011;38541;48.130;8.378;2023-06-04T03:03:57;5.00;;;4.50;;
52248;SDS011;38541;48.130;8.378;2023-06-04T03:06:23;6.03;;;4.88;;
52248;SDS011;38541;48.130;8.378;2023-06-04T03:08:50;5.57;;;5.07;;
52248;SDS011;38541;48.130;8.378;2023-06-04T03:11:17;6.05;;;4.82;;
52248;SDS011;38541;48.130;8.378;2023-06-04T03:13:47;6.63;;;4.95;;
52248;SDS011;38541;48.130;8.378;2023-06-04T03:16:14;5.80;;;4.47;;
52248;SDS011;38541;48.130;8.378;2023-06-04T03:18:41;5.65;;;4.70;;
52248;SDS011;38541;48.130;8.378;2023-06-04T03:21:09;5.93;;;4.80;;
52248;SDS011;38541;48.130;8.378;2023-06-04T03:23:38;6.28;;;4.65;;
52248;SDS011;38541;48.130;8.378;2023-06-04T03:26:05;5.47;;;4.95;;
52248;SDS011;38541;48.130;8.378;2023-06-04T03:28:32;5.85;;;5.10;;
52248;SDS011;38541;48.130;8.378;2023-06-04T03:31:02;5.78;;;5.15;;
52248;SDS011;38541;48.130;8.378;2023-06-04T03:33:29;5.53;;;4.93;;
52248;SDS011;38541;48.130;8.378;2023-06-04T03:35:56;5.90;;;4.72;;
52248;SDS011;38541;48.130;8.378;2023-06-04T03:38:25;5.45;;;4.90;;
52248;SDS011;38541;48.130;8.378;2023-06-04T03:40:53;5.88;;;4.53;;
52248;SDS011;38541;48.130;8.378;2023-06-04T03:43:20;7.25;;;5.05;;
52248;SDS011;38541;48.130;8.378;2023-06-04T03:45:50;6.32;;;4.80;;
52248;SDS011;38541;48.130;8.378;2023-06-04T03:48:16;6.07;;;5.38;;
52248;SDS011;38541;48.130;8.378;2023-06-04T03:50:44;5.30;;;4.80;;
52248;SDS011;38541;48.130;8.378;2023-06-04T03:53:13;6.28;;;5.68;;
52248;SDS011;38541;48.130;8.378;2023-06-04T03:55:40;5.72;;;5.00;;
52248;SDS011;38541;48.130;8.378;2023-06-04T03:58:08;6.45;;;5.20;;
52248;SDS011;38541;48.130;8.378;2023-06-04T04:00:37;7.97;;;5.30;;
52248;SDS011;38541;48.130;8.378;2023-06-04T04:03:04;13.05;;;7.72;;
52248;SDS011;38541;48.130;8.378;2023-06-04T04:05:34;9.70;;;7.30;;
52248;SDS011;38541;48.130;8.378;2023-06-04T04:08:02;13.95;;;8.32;;
52248;SDS011;38541;48.130;8.378;2023-06-04T04:10:32;16.98;;;11.18;;
52248;SDS011;38541;48.130;8.378;2023-06-04T04:12:58;11.57;;;8.00;;
52248;SDS011;38541;48.130;8.378;2023-06-04T04:15:28;8.52;;;5.85;;
52248;SDS011;38541;48.130;8.378;2023-06-04T04:17:55;6.38;;;5.30;;
52248;SDS011;38541;48.130;8.378;2023-06-04T04:20:21;5.80;;;5.20;;
52248;SDS011;38541;48.130;8.378;2023-06-04T04:22:54;6.18;;;5.57;;
52248;SDS011;38541;48.130;8.378;2023-06-04T04:25:23;5.80;;;5.22;;
52248;SDS011;38541;48.130;8.378;2023-06-04T04:27:50;7.05;;;5.35;;
52248;SDS011;38541;48.130;8.378;2023-06-04T04:30:17;6.13;;;4.50;;
52248;SDS011;38541;48.130;8.378;2023-06-04T04:32:47;7.57;;;5.28;;
52248;SDS011;38541;48.130;8.378;2023-06-04T04:35:23;7.30;;;5.40;;
52248;SDS011;38541;48.130;8.378;2023-06-04T04:37:51;8.30;;;5.75;;
52248;SDS011;38541;48.130;8.378;2023-06-04T04:40:18;6.80;;;6.10;;
52248;SDS011;38541;48.130;8.378;2023-06-04T04:42:47;6.60;;;5.88;;
52248;SDS011;38541;48.130;8.378;2023-06-04T04:45:15;6.47;;;5.72;;
52248;SDS011;38541;48.130;8.378;2023-06-04T04:47:44;7.95;;;6.15;;
52248;SDS011;38541;48.130;8.378;2023-06-04T04:50:11;6.47;;;5.63;;
52248;SDS011;38541;48.130;8.378;2023-06-04T04:52:37;5.80;;;5.30;;
52248;SDS011;38541;48.130;8.378;2023-06-04T04:55:05;7.75;;;5.82;;
52248;SDS011;38541;48.130;8.378;2023-06-04T04:57:33;8.25;;;6.45;;
52248;SDS011;38541;48.130;8.378;2023-06-04T05:00:00;8.63;;;6.55;;
52248;SDS011;38541;48.130;8.378;2023-06-04T05:02:27;7.30;;;5.57;;
52248;SDS011;38541;48.130;8.378;2023-06-04T05:04:54;8.90;;;6.30;;
52248;SDS011;38541;48.130;8.378;2023-06-04T05:07:21;10.00;;;7.15;;
52248;SDS011;38541;48.130;8.378;2023-06-04T05:09:49;6.50;;;5.60;;
52248;SDS011;38541;48.130;8.378;2023-06-04T05:12:16;6.32;;;5.72;;
52248;SDS011;38541;48.130;8.378;2023-06-04T05:14:44;5.60;;;5.10;;
52248;SDS011;38541;48.130;8.378;2023-06-04T05:17:13;8.05;;;5.78;;
52248;SDS011;38541;48.130;8.378;2023-06-04T05:19:43;6.82;;;6.13;;
52248;SDS011;38541;48.130;8.378;2023-06-04T05:22:10;9.95;;;6.35;;
52248;SDS011;38541;48.130;8.378;2023-06-04T05:24:37;6.00;;;5.20;;
52248;SDS011;38541;48.130;8.378;2023-06-04T05:27:06;8.05;;;6.32;;
52248;SDS011;38541;48.130;8.378;2023-06-04T05:29:32;9.02;;;6.25;;
52248;SDS011;38541;48.130;8.378;2023-06-04T05:31:59;6.03;;;5.43;;
52248;SDS011;38541;48.130;8.378;2023-06-04T05:34:25;6.93;;;5.95;;
52248;SDS011;38541;48.130;8.378;2023-06-04T05:36:53;6.15;;;5.55;;
52248;SDS011;38541;48.130;8.378;2023-06-04T05:39:20;7.47;;;5.80;;
52248;SDS011;38541;48.130;8.378;2023-06-04T05:41:55;8.25;;;6.05;;
52248;SDS011;38541;48.130;8.378;2023-06-04T05:44:22;6.78;;;6.07;;
52248;SDS011;38541;48.130;8.378;2023-06-04T05:46:48;6.35;;;5.75;;
52248;SDS011;38541;48.130;8.378;2023-06-04T05:49:15;6.85;;;6.18;;
52248;SDS011;38541;48.130;8.378;2023-06-04T05:51:43;11.82;;;6.30;;
52248;SDS011;38541;48.130;8.378;2023-06-04T05:54:10;7.80;;;7.00;;
52248;SDS011;38541;48.130;8.378;2023-06-04T05:56:40;8.40;;;6.50;;
52248;SDS011;38541;48.130;8.378;2023-06-04T05:59:06;7.00;;;5.80;;
52248;SDS011;38541;48.130;8.378;2023-06-04T06:01:33;8.95;;;6.00;;
52248;SDS011;38541;48.130;8.378;2023-06-04T06:04:01;6.53;;;5.72;;
52248;SDS011;38541;48.130;8.378;2023-06-04T06:06:28;5.88;;;5.35;;
52248;SDS011;38541;48.130;8.378;2023-06-04T06:08:55;6.22;;;5.63;;
52248;SDS011;38541;48.130;8.378;2023-06-04T06:11:21;6.45;;;5.03;;
52248;SDS011;38541;48.130;8.378;2023-06-04T06:13:48;5.57;;;4.97;;
52248;SDS011;38541;48.130;8.378;2023-06-04T06:16:16;5.70;;;5.07;;
52248;SDS011;38541;48.130;8.378;2023-06-04T06:18:43;6.97;;;4.78;;
52248;SDS011;38541;48.130;8.378;2023-06-04T06:21:10;7.47;;;5.90;;
52248;SDS011;38541;48.130;8.378;2023-06-04T06:23:38;5.25;;;4.75;;
52248;SDS011;38541;48.130;8.378;2023-06-04T06:26:05;5.13;;;4.57;;
52248;SDS011;38541;48.130;8.378;2023-06-04T06:28:39;4.97;;;4.50;;
52248;SDS011;38541;48.130;8.378;2023-06-04T06:31:07;5.22;;;4.20;;
52248;SDS011;38541;48.130;8.378;2023-06-04T06:33:33;4.70;;;4.25;;
52248;SDS011;38541;48.130;8.378;2023-06-04T06:36:00;4.40;;;3.97;;
52248;SDS011;38541;48.130;8.378;2023-06-04T06:38:26;6.10;;;4.80;;
52248;SDS011;38541;48.130;8.378;2023-06-04T06:40:53;4.97;;;4.47;;
52248;SDS011;38541;48.130;8.378;2023-06-04T06:43:20;5.00;;;4.22;;
52248;SDS011;38541;48.130;8.378;2023-06-04T06:45:46;5.50;;;4.47;;
52248;SDS011;38541;48.130;8.378;2023-06-04T06:48:13;4.95;;;4.13;;
52248;SDS011;38541;48.130;8.378;2023-06-04T06:50:39;4.13;;;3.75;;
52248;SDS011;38541;48.130;8.378;2023-06-04T06:53:06;4.18;;;3.88;;
52248;SDS011;38541;48.130;8.378;2023-06-04T06:55:32;5.65;;;4.00;;
52248;SDS011;38541;48.130;8.378;2023-06-04T06:57:59;4.45;;;4.05;;
52248;SDS011;38541;48.130;8.378;2023-06-04T07:00:26;5.68;;;4.38;;
52248;SDS011;38541;48.130;8.378;2023-06-04T07:02:54;5.30;;;4.22;;
52248;SDS011;38541;48.130;8.378;2023-06-04T07:05:20;5.03;;;3.80;;
52248;SDS011;38541;48.130;8.378;2023-06-04T07:07:47;5.43;;;4.07;;
52248;SDS011;38541;48.130;8.378;2023-06-04T07:10:14;5.40;;;3.92;;
52248;SDS011;38541;48.130;8.378;2023-06-04T07:12:40;5.00;;;4.55;;
52248;SDS011;38541;48.130;8.378;2023-06-04T07:15:09;4.85;;;3.78;;
52248;SDS011;38541;48.130;8.378;2023-06-04T07:17:35;4.53;;;3.70;;
52248;SDS011;38541;48.130;8.378;2023-06-04T07:20:02;4.05;;;3.65;;
52248;SDS011;38541;48.130;8.378;2023-06-04T07:22:34;4.13;;;3.72;;
52248;SDS011;38541;48.130;8.378;2023-06-04T07:25:01;3.95;;;3.63;;
52248;SDS011;38541;48.130;8.378;2023-06-04T07:27:28;4.57;;;3.88;;
52248;SDS011;38541;48.130;8.378;2023-06-04T07:29:54;3.63;;;3.30;;
52248;SDS011;38541;48.130;8.378;2023-06-04T07:32:21;5.88;;;3.33;;
52248;SDS011;38541;48.130;8.378;2023-06-04T07:34:48;3.90;;;3.50;;
52248;SDS011;38541;48.130;8.378;2023-06-04T07:37:14;4.00;;;3.35;;
52248;SDS011;38541;48.130;8.378;2023-06-04T07:39:41;3.72;;;3.42;;
52248;SDS011;38541;48.130;8.378;2023-06-04T07:42:08;5.50;;;4.20;;
52248;SDS011;38541;48.130;8.378;2023-06-04T07:44:36;4.78;;;3.70;;
52248;SDS011;38541;48.130;8.378;2023-06-04T07:47:04;3.95;;;3.65;;
52248;SDS011;38541;48.130;8.378;2023-06-04T07:49:31;4.75;;;3.78;;
52248;SDS011;38541;48.130;8.378;2023-06-04T07:51:58;6.18;;;3.53;;
52248;SDS011;38541;48.130;8.378;2023-06-04T07:54:25;6.05;;;3.85;;
52248;SDS011;38541;48.130;8.378;2023-06-04T07:56:52;5.93;;;3.83;;
52248;SDS011;38541;48.130;8.378;2023-06-04T07:59:22;3.90;;;3.53;;
52248;SDS011;38541;48.130;8.378;2023-06-04T08:01:49;3.97;;;3.60;;
52248;SDS011;38541;48.130;8.378;2023-06-04T08:04:20;5.28;;;3.83;;
52248;SDS011;38541;48.130;8.378;2023-06-04T08:06:46;4.20;;;3.80;;
52248;SDS011;38541;48.130;8.378;2023-06-04T08:09:13;3.65;;;3.33;;
52248;SDS011;38541;48.130;8.378;2023-06-04T08:11:40;6.05;;;3.90;;
52248;SDS011;38541;48.130;8.378;2023-06-04T08:14:10;4.47;;;3.90;;
52248;SDS011;38541;48.130;8.378;2023-06-04T08:16:37;3.95;;;3.50;;
52248;SDS011;38541;48.130;8.378;2023-06-04T08:19:04;4.13;;;3.72;;
52248;SDS011;38541;48.130;8.378;2023-06-04T08:21:30;6.32;;;4.10;;
52248;SDS011;38541;48.130;8.378;2023-06-04T08:23:57;4.60;;;3.70;;
52248;SDS011;38541;48.130;8.378;2023-06-04T08:26:25;5.25;;;4.18;;
52248;SDS011;38541;48.130;8.378;2023-06-04T08:28:53;3.72;;;3.33;;
52248;SDS011;38541;48.130;8.378;2023-06-04T08:31:19;4.18;;;3.78;;
52248;SDS011;38541;48.130;8.378;2023-06-04T08:33:46;4.38;;;3.92;;
52248;SDS011;38541;48.130;8.378;2023-06-04T08:36:14;3.47;;;3.17;;
52248;SDS011;38541;48.130;8.378;2023-06-04T08:38:42;4.93;;;3.53;;
52248;SDS011;38541;48.130;8.378;2023-06-04T08:44:18;4.68;;;3.85;;
52248;SDS011;38541;48.130;8.378;2023-06-04T08:46:44;7.57;;;4.10;;
52248;SDS011;38541;48.130;8.378;2023-06-04T08:49:13;3.58;;;3.28;;
52248;SDS011;38541;48.130;8.378;2023-06-04T08:51:42;3.97;;;3.58;;
52248;SDS011;38541;48.130;8.378;2023-06-04T08:54:08;6.38;;;4.28;;
52248;SDS011;38541;48.130;8.378;2023-06-04T08:56:37;4.68;;;3.63;;
52248;SDS011;38541;48.130;8.378;2023-06-04T08:59:04;4.93;;;3.67;;
52248;SDS011;38541;48.130;8.378;2023-06-04T09:01:33;5.00;;;3.83;;
52248;SDS011;38541;48.130;8.378;2023-06-04T09:04:03;4.95;;;3.80;;
52248;SDS011;38541;48.130;8.378;2023-06-04T09:06:36;4.68;;;3.45;;
52248;SDS011;38541;48.130;8.378;2023-06-04T09:09:04;4.63;;;4.10;;
52248;SDS011;38541;48.130;8.378;2023-06-04T09:11:57;3.72;;;3.42;;
52248;SDS011;38541;48.130;8.378;2023-06-04T09:14:23;4.35;;;3.85;;
52248;SDS011;38541;48.130;8.378;2023-06-04T09:16:51;4.95;;;4.22;;
52248;SDS011;38541;48.130;8.378;2023-06-04T09:19:19;4.38;;;3.65;;
52248;SDS011;38541;48.130;8.378;2023-06-04T09:21:47;3.60;;;3.30;;
52248;SDS011;38541;48.130;8.378;2023-06-04T09:24:18;3.95;;;3.40;;
52248;SDS011;38541;48.130;8.378;2023-06-04T09:26:45;4.90;;;3.28;;
52248;SDS011;38541;48.130;8.378;2023-06-04T09:29:12;3.78;;;3.47;;
52248;SDS011;38541;48.130;8.378;2023-06-04T09:31:39;4.13;;;3.72;;
52248;SDS011;38541;48.130;8.378;2023-06-04T09:34:06;4.70;;;3.80;;
52248;SDS011;38541;48.130;8.378;2023-06-04T09:36:33;5.72;;;4.28;;
52248;SDS011;38541;48.130;8.378;2023-06-04T09:39:04;4.90;;;3.60;;
52248;SDS011;38541;48.130;8.378;2023-06-04T09:41:41;3.83;;;3.22;;
52248;SDS011;38541;48.130;8.378;2023-06-04T09:44:08;3.63;;;3.33;;
52248;SDS011;38541;48.130;8.378;2023-06-04T09:46:37;4.15;;;3.60;;
52248;SDS011;38541;48.130;8.378;2023-06-04T09:49:04;4.68;;;3.45;;
52248;SDS011;38541;48.130;8.378;2023-06-04T09:51:31;3.38;;;3.08;;
52248;SDS011;38541;48.130;8.378;2023-06-04T09:53:59;3.58;;;3.28;;
52248;SDS011;38541;48.130;8.378;2023-06-04T09:56:27;3.95;;;3.65;;
52248;SDS011;38541;48.130;8.378;2023-06-04T09:58:55;5.32;;;3.72;;
52248;SDS011;38541;48.130;8.378;2023-06-04T10:01:23;4.28;;;3.55;;
52248;SDS011;38541;48.130;8.378;2023-06-04T10:03:53;4.50;;;3.83;;
52248;SDS011;38541;48.130;8.378;2023-06-04T10:06:20;5.05;;;3.58;;
52248;SDS011;38541;48.130;8.378;2023-06-04T10:08:48;3.80;;;3.50;;
52248;SDS011;38541;48.130;8.378;2023-06-04T10:11:17;5.40;;;3.33;;
52248;SDS011;38541;48.130;8.378;2023-06-04T10:13:51;3.90;;;3.60;;
52248;SDS011;38541;48.130;8.378;2023-06-04T10:16:23;3.90;;;3.60;;
52248;SDS011;38541;48.130;8.378;2023-06-04T10:18:59;4.32;;;3.92;;
52248;SDS011;38541;48.130;8.378;2023-06-04T10:21:27;3.55;;;3.25;;
52248;SDS011;38541;48.130;8.378;2023-06-04T10:23:57;4.88;;;3.42;;
52248;SDS011;38541;48.130;8.378;2023-06-04T10:26:25;3.67;;;3.22;;
52248;SDS011;38541;48.130;8.378;2023-06-04T10:28:52;4.50;;;3.47;;
52248;SDS011;38541;48.130;8.378;2023-06-04T10:31:19;3.22;;;2.92;;
52248;SDS011;38541;48.130;8.378;2023-06-04T10:33:45;4.00;;;3.60;;
52248;SDS011;38541;48.130;8.378;2023-06-04T10:36:19;5.47;;;3.75;;
52248;SDS011;38541;48.130;8.378;2023-06-04T10:38:47;3.85;;;3.45;;
52248;SDS011;38541;48.130;8.378;2023-06-04T10:41:15;4.05;;;3.38;;
52248;SDS011;38541;48.130;8.378;2023-06-04T10:43:45;3.45;;;3.15;;
52248;SDS011;38541;48.130;8.378;2023-06-04T10:46:16;5.18;;;3.65;;
52248;SDS011;38541;48.130;8.378;2023-06-04T10:48:51;3.88;;;3.58;;
52248;SDS011;38541;48.130;8.378;2023-06-04T10:51:34;3.63;;;3.33;;
52248;SDS011;38541;48.130;8.378;2023-06-04T10:54:01;3.53;;;3.22;;
52248;SDS011;38541;48.130;8.378;2023-06-04T10:56:30;3.50;;;3.20;;
52248;SDS011;38541;48.130;8.378;2023-06-04T10:58:59;4.60;;;4.00;;
52248;SDS011;38541;48.130;8.378;2023-06-04T11:01:26;3.28;;;3.03;;
52248;SDS011;38541;48.130;8.378;2023-06-04T11:03:55;4.72;;;3.28;;
52248;SDS011;38541;48.130;8.378;2023-06-04T11:06:22;5.00;;;3.22;;
52248;SDS011;38541;48.130;8.378;2023-06-04T11:08:49;4.90;;;3.03;;
52248;SDS011;38541;48.130;8.378;2023-06-04T11:11:16;3.42;;;3.13;;
52248;SDS011;38541;48.130;8.378;2023-06-04T11:13:43;3.60;;;3.25;;
52248;SDS011;38541;48.130;8.378;2023-06-04T11:16:16;3.45;;;3.15;;
52248;SDS011;38541;48.130;8.378;2023-06-04T11:18:43;3.75;;;3.00;;
52248;SDS011;38541;48.130;8.378;2023-06-04T11:21:20;4.00;;;3.45;;
52248;SDS011;38541;48.130;8.378;2023-06-04T11:23:47;3.70;;;3.15;;
52248;SDS011;38541;48.130;8.378;2023-06-04T11:26:14;2.78;;;2.58;;
52248;SDS011;38541;48.130;8.378;2023-06-04T11:28:40;3.67;;;3.03;;
52248;SDS011;38541;48.130;8.378;2023-06-04T11:31:09;3.72;;;3.42;;
52248;SDS011;38541;48.130;8.378;2023-06-04T11:33:43;5.40;;;3.22;;
52248;SDS011;38541;48.130;8.378;2023-06-04T11:36:10;3.35;;;2.92;;
52248;SDS011;38541;48.130;8.378;2023-06-04T11:38:54;3.45;;;3.15;;
52248;SDS011;38541;48.130;8.378;2023-06-04T11:41:23;3.70;;;3.27;;
52248;SDS011;38541;48.130;8.378;2023-06-04T11:43:57;3.70;;;3.22;;
52248;SDS011;38541;48.130;8.378;2023-06-04T11:46:27;3.70;;;3.33;;
52248;SDS011;38541;48.130;8.378;2023-06-04T11:48:54;3.22;;;2.92;;
52248;SDS011;38541;48.130;8.378;2023-06-04T11:51:21;3.20;;;2.90;;
52248;SDS011;38541;48.130;8.378;2023-06-04T11:53:47;3.78;;;3.22;;
52248;SDS011;38541;48.130;8.378;2023-06-04T11:56:14;3.25;;;2.90;;
52248;SDS011;38541;48.130;8.378;2023-06-04T11:58:42;3.40;;;3.00;;
52248;SDS011;38541;48.130;8.378;2023-06-04T12:01:09;3.58;;;3.28;;
52248;SDS011;38541;48.130;8.378;2023-06-04T12:03:38;3.33;;;3.03;;
52248;SDS011;38541;48.130;8.378;2023-06-04T12:06:10;3.40;;;3.05;;
52248;SDS011;38541;48.130;8.378;2023-06-04T12:08:48;2.95;;;2.65;;
52248;SDS011;38541;48.130;8.378;2023-06-04T12:13:58;3.03;;;2.83;;
52248;SDS011;38541;48.130;8.378;2023-06-04T12:16:30;3.50;;;3.20;;
52248;SDS011;38541;48.130;8.378;2023-06-04T12:19:09;3.58;;;2.92;;
52248;SDS011;38541;48.130;8.378;2023-06-04T12:21:40;3.40;;;3.20;;
52248;SDS011;38541;48.130;8.378;2023-06-04T12:24:11;15.13;;;3.53;;
52248;SDS011;38541;48.130;8.378;2023-06-04T12:26:41;4.25;;;3.30;;
52248;SDS011;38541;48.130;8.378;2023-06-04T12:29:14;2.97;;;2.78;;
52248;SDS011;38541;48.130;8.378;2023-06-04T12:31:42;3.47;;;3.15;;
52248;SDS011;38541;48.130;8.378;2023-06-04T12:34:10;3.80;;;3.35;;
52248;SDS011;38541;48.130;8.378;2023-06-04T12:36:40;3.35;;;3.10;;
52248;SDS011;38541;48.130;8.378;2023-06-04T12:39:06;3.40;;;3.10;;
52248;SDS011;38541;48.130;8.378;2023-06-04T12:41:33;4.47;;;3.33;;
52248;SDS011;38541;48.130;8.378;2023-06-04T12:44:00;5.85;;;3.55;;
52248;SDS011;38541;48.130;8.378;2023-06-04T12:46:27;4.10;;;3.70;;
52248;SDS011;38541;48.130;8.378;2023-06-04T12:48:54;3.67;;;3.38;;
52248;SDS011;38541;48.130;8.378;2023-06-04T12:51:21;3.72;;;3.20;;
52248;SDS011;38541;48.130;8.378;2023-06-04T12:53:48;3.55;;;3.25;;
52248;SDS011;38541;48.130;8.378;2023-06-04T12:56:14;5.15;;;4.18;;
52248;SDS011;38541;48.130;8.378;2023-06-04T12:58:42;4.07;;;3.67;;
52248;SDS011;38541;48.130;8.378;2023-06-04T13:01:08;3.72;;;3.42;;
52248;SDS011;38541;48.130;8.378;2023-06-04T13:03:36;3.72;;;3.40;;
52248;SDS011;38541;48.130;8.378;2023-06-04T13:06:04;5.60;;;5.03;;
52248;SDS011;38541;48.130;8.378;2023-06-04T13:08:32;4.10;;;3.70;;
52248;SDS011;38541;48.130;8.378;2023-06-04T13:10:59;4.57;;;3.42;;
52248;SDS011;38541;48.130;8.378;2023-06-04T13:13:27;3.67;;;3.38;;
52248;SDS011;38541;48.130;8.378;2023-06-04T13:15:53;4.03;;;3.67;;
52248;SDS011;38541;48.130;8.378;2023-06-04T13:18:20;4.13;;;3.67;;
52248;SDS011;38541;48.130;8.378;2023-06-04T13:20:47;5.03;;;3.80;;
52248;SDS011;38541;48.130;8.378;2023-06-04T13:23:15;4.97;;;3.53;;
52248;SDS011;38541;48.130;8.378;2023-06-04T13:25:42;3.70;;;3.40;;
52248;SDS011;38541;48.130;8.378;2023-06-04T13:28:09;6.10;;;4.43;;
52248;SDS011;38541;48.130;8.378;2023-06-04T13:30:36;5.78;;;4.53;;
52248;SDS011;38541;48.130;8.378;2023-06-04T13:33:03;4.80;;;4.30;;
52248;SDS011;38541;48.130;8.378;2023-06-04T13:35:31;4.65;;;3.97;;
52248;SDS011;38541;48.130;8.378;2023-06-04T13:37:58;4.78;;;4.32;;
52248;SDS011;38541;48.130;8.378;2023-06-04T13:40:24;5.95;;;4.40;;
52248;SDS011;38541;48.130;8.378;2023-06-04T13:42:51;5.00;;;4.50;;
52248;SDS011;38541;48.130;8.378;2023-06-04T13:45:17;7.35;;;3.85;;
52248;SDS011;38541;48.130;8.378;2023-06-04T13:47:47;6.03;;;4.18;;
52248;SDS011;38541;48.130;8.378;2023-06-04T13:50:20;4.15;;;3.65;;
52248;SDS011;38541;48.130;8.378;2023-06-04T13:52:47;5.88;;;4.15;;
52248;SDS011;38541;48.130;8.378;2023-06-04T13:55:13;4.30;;;3.90;;
52248;SDS011;38541;48.130;8.378;2023-06-04T13:57:40;4.18;;;3.80;;
52248;SDS011;38541;48.130;8.378;2023-06-04T14:00:06;6.13;;;4.70;;
52248;SDS011;38541;48.130;8.378;2023-06-04T14:02:34;5.40;;;4.32;;
52248;SDS011;38541;48.130;8.378;2023-06-04T14:05:01;5.63;;;4.10;;
52248;SDS011;38541;48.130;8.378;2023-06-04T14:07:27;4.70;;;4.20;;
52248;SDS011;38541;48.130;8.378;2023-06-04T14:09:54;5.03;;;4.53;;
52248;SDS011;38541;48.130;8.378;2023-06-04T14:12:21;7.78;;;4.00;;
52248;SDS011;38541;48.130;8.378;2023-06-04T14:14:49;5.05;;;4.20;;
52248;SDS011;38541;48.130;8.378;2023-06-04T14:17:16;5.25;;;4.10;;
52248;SDS011;38541;48.130;8.378;2023-06-04T14:19:43;5.93;;;3.85;;
52248;SDS011;38541;48.130;8.378;2023-06-04T14:22:10;5.15;;;3.65;;
52248;SDS011;38541;48.130;8.378;2023-06-04T14:24:40;5.03;;;4.05;;
52248;SDS011;38541;48.130;8.378;2023-06-04T14:27:07;7.18;;;4.57;;
52248;SDS011;38541;48.130;8.378;2023-06-04T14:29:35;4.25;;;3.53;;
52248;SDS011;38541;48.130;8.378;2023-06-04T14:32:06;9.25;;;4.22;;
52248;SDS011;38541;48.130;8.378;2023-06-04T14:34:33;5.55;;;4.10;;
52248;SDS011;38541;48.130;8.378;2023-06-04T14:36:59;8.10;;;3.67;;
52248;SDS011;38541;48.130;8.378;2023-06-04T14:39:26;5.40;;;3.80;;
52248;SDS011;38541;48.130;8.378;2023-06-04T14:41:53;4.25;;;3.03;;
52248;SDS011;38541;48.130;8.378;2023-06-04T14:44:20;4.40;;;3.90;;
52248;SDS011;38541;48.130;8.378;2023-06-04T14:46:48;5.05;;;3.60;;
52248;SDS011;38541;48.130;8.378;2023-06-04T14:49:16;10.98;;;7.70;;
52248;SDS011;38541;48.130;8.378;2023-06-04T14:51:43;5.30;;;3.92;;
52248;SDS011;38541;48.130;8.378;2023-06-04T14:54:10;5.65;;;4.10;;
52248;SDS011;38541;48.130;8.378;2023-06-04T14:56:37;5.38;;;4.05;;
52248;SDS011;38541;48.130;8.378;2023-06-04T14:59:04;5.97;;;4.05;;